sensor_id;sensor_type;location;lat;lon;timestamp;temperature;humidity
11505;DHT22;5809;53.262;10.408;2023-11-19T00:05:28;4.60;99.90
11505;DHT22;5809;53.262;10.408;2023-11-19T00:12:50;4.60;99.90
11505;DHT22;5809;53.262;10.408;2023-11-19T00:15:19;4.70;99.90
11505;DHT22;5809;53.262;10.408;2023-11-19T00:17:47;4.70;99.90
11505;DHT22;5809;53.262;10.408;2023-11-19T00:20:15;4.70;99.90
11505;DHT22;5809;53.262;10.408;2023-11-19T00:27:37;4.70;99.90
11505;DHT22;5809;53.262;10.408;2023-11-19T00:30:04;4.70;99.90
11505;DHT22;5809;53.262;10.408;2023-11-19T00:32:33;4.70;99.90
11505;DHT22;5809;53.262;10.408;2023-11-19T00:35:00;4.70;99.90
11505;DHT22;5809;53.262;10.408;2023-11-19T00:37:28;4.70;99.90
11505;DHT22;5809;53.262;10.408;2023-11-19T00:42:22;4.70;99.90
11505;DHT22;5809;53.262;10.408;2023-11-19T00:49:47;4.70;99.90
11505;DHT22;5809;53.262;10.408;2023-11-19T00:54:42;4.70;99.90
11505;DHT22;5809;53.262;10.408;2023-11-19T00:59:37;4.70;99.90
11505;DHT22;5809;53.262;10.408;2023-11-19T01:02:04;4.70;99.90
11505;DHT22;5809;53.262;10.408;2023-11-19T01:04:33;4.70;99.90
11505;DHT22;5809;53.262;10.408;2023-11-19T01:07:03;4.70;99.90
11505;DHT22;5809;53.262;10.408;2023-11-19T01:14:28;4.40;99.90
11505;DHT22;5809;53.262;10.408;2023-11-19T01:19:22;4.70;99.90
11505;DHT22;5809;53.262;10.408;2023-11-19T01:21:50;4.70;99.90
11505;DHT22;5809;53.262;10.408;2023-11-19T01:24:18;4.70;99.90
11505;DHT22;5809;53.262;10.408;2023-11-19T01:26:45;4.80;99.90
11505;DHT22;5809;53.262;10.408;2023-11-19T01:31:39;4.70;99.90
11505;DHT22;5809;53.262;10.408;2023-11-19T01:34:06;4.80;99.90
11505;DHT22;5809;53.262;10.408;2023-11-19T01:39:00;4.80;99.90
11505;DHT22;5809;53.262;10.408;2023-11-19T01:41:28;4.80;99.90
11505;DHT22;5809;53.262;10.408;2023-11-19T01:48:48;4.80;99.90
11505;DHT22;5809;53.262;10.408;2023-11-19T01:51:16;4.80;99.90
11505;DHT22;5809;53.262;10.408;2023-11-19T01:53:44;4.80;99.90
11505;DHT22;5809;53.262;10.408;2023-11-19T01:56:14;4.80;99.90
11505;DHT22;5809;53.262;10.408;2023-11-19T01:58:44;4.90;99.90
11505;DHT22;5809;53.262;10.408;2023-11-19T02:01:12;4.80;99.90
11505;DHT22;5809;53.262;10.408;2023-11-19T02:03:40;4.90;99.90
11505;DHT22;5809;53.262;10.408;2023-11-19T02:06:07;4.90;99.90
11505;DHT22;5809;53.262;10.408;2023-11-19T02:11:03;4.90;99.90
11505;DHT22;5809;53.262;10.408;2023-11-19T02:13:32;4.90;99.90
11505;DHT22;5809;53.262;10.408;2023-11-19T02:16:03;4.90;99.90
11505;DHT22;5809;53.262;10.408;2023-11-19T02:18:31;4.90;99.90
11505;DHT22;5809;53.262;10.408;2023-11-19T02:20:59;4.90;99.90
11505;DHT22;5809;53.262;10.408;2023-11-19T02:23:27;4.90;99.90
11505;DHT22;5809;53.262;10.408;2023-11-19T02:26:02;4.90;99.90
11505;DHT22;5809;53.262;10.408;2023-11-19T02:28:33;4.90;99.90
11505;DHT22;5809;53.262;10.408;2023-11-19T02:33:27;4.90;99.90
11505;DHT22;5809;53.262;10.408;2023-11-19T02:35:55;4.90;99.90
11505;DHT22;5809;53.262;10.408;2023-11-19T02:38:21;5.00;99.90
11505;DHT22;5809;53.262;10.408;2023-11-19T02:40:48;5.00;99.90
11505;DHT22;5809;53.262;10.408;2023-11-19T02:45:45;5.00;99.90
11505;DHT22;5809;53.262;10.408;2023-11-19T02:48:12;5.00;99.90
11505;DHT22;5809;53.262;10.408;2023-11-19T02:50:39;5.10;99.90
11505;DHT22;5809;53.262;10.408;2023-11-19T02:53:06;5.10;99.90
11505;DHT22;5809;53.262;10.408;2023-11-19T02:55:33;5.10;99.90
11505;DHT22;5809;53.262;10.408;2023-11-19T02:58:03;5.10;99.90
11505;DHT22;5809;53.262;10.408;2023-11-19T03:00:46;5.00;99.90
11505;DHT22;5809;53.262;10.408;2023-11-19T03:05:48;5.20;99.90
11505;DHT22;5809;53.262;10.408;2023-11-19T03:08:15;5.20;99.90
11505;DHT22;5809;53.262;10.408;2023-11-19T03:10:42;5.30;99.90
11505;DHT22;5809;53.262;10.408;2023-11-19T03:13:11;5.30;99.90
11505;DHT22;5809;53.262;10.408;2023-11-19T03:15:39;5.40;99.90
11505;DHT22;5809;53.262;10.408;2023-11-19T03:18:08;5.30;99.90
11505;DHT22;5809;53.262;10.408;2023-11-19T03:28:00;5.40;99.90
11505;DHT22;5809;53.262;10.408;2023-11-19T03:30:27;5.40;99.90
11505;DHT22;5809;53.262;10.408;2023-11-19T03:32:54;5.40;99.90
11505;DHT22;5809;53.262;10.408;2023-11-19T03:35:23;5.40;99.90
11505;DHT22;5809;53.262;10.408;2023-11-19T03:40:19;5.50;99.90
11505;DHT22;5809;53.262;10.408;2023-11-19T03:52:37;5.60;99.90
11505;DHT22;5809;53.262;10.408;2023-11-19T03:55:04;5.60;99.90
11505;DHT22;5809;53.262;10.408;2023-11-19T04:00:01;5.60;99.90
11505;DHT22;5809;53.262;10.408;2023-11-19T04:05:01;5.70;99.90
11505;DHT22;5809;53.262;10.408;2023-11-19T04:07:28;5.80;99.90
11505;DHT22;5809;53.262;10.408;2023-11-19T04:09:57;5.80;99.90
11505;DHT22;5809;53.262;10.408;2023-11-19T04:14:51;5.90;99.90
11505;DHT22;5809;53.262;10.408;2023-11-19T04:19:45;6.00;99.90
11505;DHT22;5809;53.262;10.408;2023-11-19T04:22:11;6.00;99.90
11505;DHT22;5809;53.262;10.408;2023-11-19T04:27:07;6.10;99.90
11505;DHT22;5809;53.262;10.408;2023-11-19T04:34:30;6.20;99.90
11505;DHT22;5809;53.262;10.408;2023-11-19T04:36:57;6.30;99.90
11505;DHT22;5809;53.262;10.408;2023-11-19T04:39:27;6.30;99.90
11505;DHT22;5809;53.262;10.408;2023-11-19T04:44:22;6.40;99.90
11505;DHT22;5809;53.262;10.408;2023-11-19T04:49:16;6.50;99.90
11505;DHT22;5809;53.262;10.408;2023-11-19T04:51:44;6.60;99.90
11505;DHT22;5809;53.262;10.408;2023-11-19T04:56:40;6.70;99.90
11505;DHT22;5809;53.262;10.408;2023-11-19T05:01:35;6.90;99.90
11505;DHT22;5809;53.262;10.408;2023-11-19T05:06:30;7.10;99.90
11505;DHT22;5809;53.262;10.408;2023-11-19T05:08:58;7.20;99.90
11505;DHT22;5809;53.262;10.408;2023-11-19T05:18:49;7.30;99.90
11505;DHT22;5809;53.262;10.408;2023-11-19T05:21:16;7.40;99.90
11505;DHT22;5809;53.262;10.408;2023-11-19T05:26:17;7.50;99.90
11505;DHT22;5809;53.262;10.408;2023-11-19T05:28:45;7.50;99.90
11505;DHT22;5809;53.262;10.408;2023-11-19T05:33:39;7.70;99.90
11505;DHT22;5809;53.262;10.408;2023-11-19T05:36:07;7.80;99.90
11505;DHT22;5809;53.262;10.408;2023-11-19T05:38:34;7.90;99.90
11505;DHT22;5809;53.262;10.408;2023-11-19T05:53:18;8.20;99.90
11505;DHT22;5809;53.262;10.408;2023-11-19T05:58:21;8.20;99.90
11505;DHT22;5809;53.262;10.408;2023-11-19T06:03:16;8.30;99.90
11505;DHT22;5809;53.262;10.408;2023-11-19T06:05:44;8.40;99.90
11505;DHT22;5809;53.262;10.408;2023-11-19T06:10:41;8.40;99.90
11505;DHT22;5809;53.262;10.408;2023-11-19T06:13:09;8.40;99.90
11505;DHT22;5809;53.262;10.408;2023-11-19T06:18:04;8.50;99.90
11505;DHT22;5809;53.262;10.408;2023-11-19T06:20:31;8.50;99.90
11505;DHT22;5809;53.262;10.408;2023-11-19T06:22:58;8.50;99.90
11505;DHT22;5809;53.262;10.408;2023-11-19T06:25:25;8.60;99.90
11505;DHT22;5809;53.262;10.408;2023-11-19T06:27:53;8.70;99.90
11505;DHT22;5809;53.262;10.408;2023-11-19T06:30:20;8.70;99.90
11505;DHT22;5809;53.262;10.408;2023-11-19T06:37:41;8.90;99.90
11505;DHT22;5809;53.262;10.408;2023-11-19T06:40:09;8.90;99.90
11505;DHT22;5809;53.262;10.408;2023-11-19T06:42:37;9.00;99.90
11505;DHT22;5809;53.262;10.408;2023-11-19T06:45:07;9.10;99.90
11505;DHT22;5809;53.262;10.408;2023-11-19T06:47:34;9.20;99.90
11505;DHT22;5809;53.262;10.408;2023-11-19T06:54:58;9.50;99.90
11505;DHT22;5809;53.262;10.408;2023-11-19T06:57:24;9.60;99.90
11505;DHT22;5809;53.262;10.408;2023-11-19T07:02:20;10.00;99.90
11505;DHT22;5809;53.262;10.408;2023-11-19T07:09:41;10.20;99.90
11505;DHT22;5809;53.262;10.408;2023-11-19T07:14:34;10.30;99.90
11505;DHT22;5809;53.262;10.408;2023-11-19T07:17:02;10.30;99.90
11505;DHT22;5809;53.262;10.408;2023-11-19T07:19:30;10.40;99.90
11505;DHT22;5809;53.262;10.408;2023-11-19T07:21:57;10.40;99.90
11505;DHT22;5809;53.262;10.408;2023-11-19T07:24:23;10.40;99.90
11505;DHT22;5809;53.262;10.408;2023-11-19T07:26:53;10.40;99.90
11505;DHT22;5809;53.262;10.408;2023-11-19T07:29:20;10.40;99.90
11505;DHT22;5809;53.262;10.408;2023-11-19T07:31:48;10.40;99.90
11505;DHT22;5809;53.262;10.408;2023-11-19T07:34:15;10.50;99.90
11505;DHT22;5809;53.262;10.408;2023-11-19T07:36:43;10.40;99.90
11505;DHT22;5809;53.262;10.408;2023-11-19T07:39:10;10.50;99.90
11505;DHT22;5809;53.262;10.408;2023-11-19T07:41:37;10.40;99.90
11505;DHT22;5809;53.262;10.408;2023-11-19T07:44:04;10.50;99.90
11505;DHT22;5809;53.262;10.408;2023-11-19T07:48:59;10.40;99.90
11505;DHT22;5809;53.262;10.408;2023-11-19T07:53:54;10.40;99.90
11505;DHT22;5809;53.262;10.408;2023-11-19T07:56:21;10.50;99.90
11505;DHT22;5809;53.262;10.408;2023-11-19T07:58:48;10.50;99.90
11505;DHT22;5809;53.262;10.408;2023-11-19T08:01:15;10.50;99.90
11505;DHT22;5809;53.262;10.408;2023-11-19T08:11:06;10.50;99.90
11505;DHT22;5809;53.262;10.408;2023-11-19T08:13:33;10.60;99.90
11505;DHT22;5809;53.262;10.408;2023-11-19T08:16:00;10.70;99.90
11505;DHT22;5809;53.262;10.408;2023-11-19T08:18:26;10.80;99.90
11505;DHT22;5809;53.262;10.408;2023-11-19T08:20:53;11.00;99.90
11505;DHT22;5809;53.262;10.408;2023-11-19T08:23:22;11.00;99.90
11505;DHT22;5809;53.262;10.408;2023-11-19T08:25:51;11.00;99.90
11505;DHT22;5809;53.262;10.408;2023-11-19T08:28:19;11.00;99.90
11505;DHT22;5809;53.262;10.408;2023-11-19T08:30:46;11.00;99.90
11505;DHT22;5809;53.262;10.408;2023-11-19T08:35:40;11.00;99.90
11505;DHT22;5809;53.262;10.408;2023-11-19T08:38:07;11.00;99.90
11505;DHT22;5809;53.262;10.408;2023-11-19T08:40:34;11.00;99.90
11505;DHT22;5809;53.262;10.408;2023-11-19T08:45:30;11.00;99.90
11505;DHT22;5809;53.262;10.408;2023-11-19T08:50:24;11.00;99.90
11505;DHT22;5809;53.262;10.408;2023-11-19T08:55:18;10.90;99.90
11505;DHT22;5809;53.262;10.408;2023-11-19T08:57:46;10.90;99.90
11505;DHT22;5809;53.262;10.408;2023-11-19T09:00:13;10.90;99.90
11505;DHT22;5809;53.262;10.408;2023-11-19T09:02:42;11.00;99.90
11505;DHT22;5809;53.262;10.408;2023-11-19T09:05:10;10.90;99.90
11505;DHT22;5809;53.262;10.408;2023-11-19T09:07:38;11.00;99.90
11505;DHT22;5809;53.262;10.408;2023-11-19T09:10:05;10.90;99.90
11505;DHT22;5809;53.262;10.408;2023-11-19T09:12:34;11.00;99.90
11505;DHT22;5809;53.262;10.408;2023-11-19T09:15:01;11.00;99.90
11505;DHT22;5809;53.262;10.408;2023-11-19T09:17:29;11.00;99.90
11505;DHT22;5809;53.262;10.408;2023-11-19T09:19:57;11.00;99.90
11505;DHT22;5809;53.262;10.408;2023-11-19T09:22:24;11.10;99.90
11505;DHT22;5809;53.262;10.408;2023-11-19T09:24:50;11.20;99.90
11505;DHT22;5809;53.262;10.408;2023-11-19T09:37:10;11.50;99.90
11505;DHT22;5809;53.262;10.408;2023-11-19T09:39:38;11.60;99.90
11505;DHT22;5809;53.262;10.408;2023-11-19T09:42:05;11.70;99.90
11505;DHT22;5809;53.262;10.408;2023-11-19T09:44:32;11.70;99.90
11505;DHT22;5809;53.262;10.408;2023-11-19T09:46:59;11.70;99.90
11505;DHT22;5809;53.262;10.408;2023-11-19T09:49:27;11.70;99.90
11505;DHT22;5809;53.262;10.408;2023-11-19T09:51:54;11.70;99.90
11505;DHT22;5809;53.262;10.408;2023-11-19T09:54:22;11.70;99.90
11505;DHT22;5809;53.262;10.408;2023-11-19T09:56:49;11.60;99.90
11505;DHT22;5809;53.262;10.408;2023-11-19T09:59:16;11.70;99.90
11505;DHT22;5809;53.262;10.408;2023-11-19T10:01:45;11.60;99.90
11505;DHT22;5809;53.262;10.408;2023-11-19T10:04:15;11.70;99.90
11505;DHT22;5809;53.262;10.408;2023-11-19T10:09:11;11.70;99.90
11505;DHT22;5809;53.262;10.408;2023-11-19T10:11:39;11.80;99.90
11505;DHT22;5809;53.262;10.408;2023-11-19T10:16:34;12.10;99.90
11505;DHT22;5809;53.262;10.408;2023-11-19T10:19:01;12.40;99.90
11505;DHT22;5809;53.262;10.408;2023-11-19T10:26:26;12.40;99.90
11505;DHT22;5809;53.262;10.408;2023-11-19T10:28:55;12.20;99.90
11505;DHT22;5809;53.262;10.408;2023-11-19T10:31:22;12.20;99.90
11505;DHT22;5809;53.262;10.408;2023-11-19T10:33:51;12.10;99.90
11505;DHT22;5809;53.262;10.408;2023-11-19T10:36:18;12.00;99.90
11505;DHT22;5809;53.262;10.408;2023-11-19T10:38:52;11.90;99.90
11505;DHT22;5809;53.262;10.408;2023-11-19T10:41:29;11.90;99.90
11505;DHT22;5809;53.262;10.408;2023-11-19T10:43:58;11.90;99.90
11505;DHT22;5809;53.262;10.408;2023-11-19T10:46:37;12.00;99.90
11505;DHT22;5809;53.262;10.408;2023-11-19T10:51:32;12.00;99.90
11505;DHT22;5809;53.262;10.408;2023-11-19T10:54:02;11.90;99.90
11505;DHT22;5809;53.262;10.408;2023-11-19T10:56:32;11.80;99.90
11505;DHT22;5809;53.262;10.408;2023-11-19T10:59:01;11.70;99.90
11505;DHT22;5809;53.262;10.408;2023-11-19T11:01:38;11.70;99.90
11505;DHT22;5809;53.262;10.408;2023-11-19T11:04:12;11.70;99.90
11505;DHT22;5809;53.262;10.408;2023-11-19T11:06:40;11.70;99.90
11505;DHT22;5809;53.262;10.408;2023-11-19T11:09:09;11.60;99.90
11505;DHT22;5809;53.262;10.408;2023-11-19T11:11:40;11.60;99.90
11505;DHT22;5809;53.262;10.408;2023-11-19T11:14:12;11.50;99.90
11505;DHT22;5809;53.262;10.408;2023-11-19T11:16:42;11.30;99.90
11505;DHT22;5809;53.262;10.408;2023-11-19T11:19:09;11.30;99.90
11505;DHT22;5809;53.262;10.408;2023-11-19T11:21:37;11.30;99.90
11505;DHT22;5809;53.262;10.408;2023-11-19T11:24:42;11.50;99.90
11505;DHT22;5809;53.262;10.408;2023-11-19T11:27:28;11.80;99.90
11505;DHT22;5809;53.262;10.408;2023-11-19T11:30:07;11.90;99.90
11505;DHT22;5809;53.262;10.408;2023-11-19T11:32:43;12.00;99.90
11505;DHT22;5809;53.262;10.408;2023-11-19T11:35:27;12.00;99.90
11505;DHT22;5809;53.262;10.408;2023-11-19T11:38:01;12.10;99.90
11505;DHT22;5809;53.262;10.408;2023-11-19T11:40:29;12.20;99.90
11505;DHT22;5809;53.262;10.408;2023-11-19T11:42:57;12.20;99.90
11505;DHT22;5809;53.262;10.408;2023-11-19T11:45:37;12.40;99.90
11505;DHT22;5809;53.262;10.408;2023-11-19T11:48:12;12.50;99.90
11505;DHT22;5809;53.262;10.408;2023-11-19T11:50:49;12.80;99.90
11505;DHT22;5809;53.262;10.408;2023-11-19T11:53:17;13.60;99.90
11505;DHT22;5809;53.262;10.408;2023-11-19T11:55:55;13.80;99.90
11505;DHT22;5809;53.262;10.408;2023-11-19T11:58:35;13.60;99.90
11505;DHT22;5809;53.262;10.408;2023-11-19T12:01:05;13.30;99.90
11505;DHT22;5809;53.262;10.408;2023-11-19T12:03:34;13.00;99.90
11505;DHT22;5809;53.262;10.408;2023-11-19T12:06:04;12.70;99.90
11505;DHT22;5809;53.262;10.408;2023-11-19T12:08:34;12.40;99.90
11505;DHT22;5809;53.262;10.408;2023-11-19T12:11:02;12.20;99.90
11505;DHT22;5809;53.262;10.408;2023-11-19T12:13:53;12.10;99.90
11505;DHT22;5809;53.262;10.408;2023-11-19T12:16:22;12.40;99.90
11505;DHT22;5809;53.262;10.408;2023-11-19T12:18:49;12.60;99.90
11505;DHT22;5809;53.262;10.408;2023-11-19T12:21:37;12.70;99.90
11505;DHT22;5809;53.262;10.408;2023-11-19T12:24:06;12.70;99.90
11505;DHT22;5809;53.262;10.408;2023-11-19T12:26:35;12.70;99.90
11505;DHT22;5809;53.262;10.408;2023-11-19T12:29:02;12.70;99.90
11505;DHT22;5809;53.262;10.408;2023-11-19T12:31:34;12.80;99.90
11505;DHT22;5809;53.262;10.408;2023-11-19T12:34:07;12.80;99.90
11505;DHT22;5809;53.262;10.408;2023-11-19T12:36:38;12.70;99.90
11505;DHT22;5809;53.262;10.408;2023-11-19T12:39:05;12.70;99.90
11505;DHT22;5809;53.262;10.408;2023-11-19T12:41:32;12.60;99.90
11505;DHT22;5809;53.262;10.408;2023-11-19T12:44:09;12.50;99.90
11505;DHT22;5809;53.262;10.408;2023-11-19T12:46:38;12.40;99.90
11505;DHT22;5809;53.262;10.408;2023-11-19T12:49:05;12.40;99.90
11505;DHT22;5809;53.262;10.408;2023-11-19T12:53:59;12.20;99.90
11505;DHT22;5809;53.262;10.408;2023-11-19T13:01:22;12.10;99.90
11505;DHT22;5809;53.262;10.408;2023-11-19T13:03:50;12.20;99.90
11505;DHT22;5809;53.262;10.408;2023-11-19T13:08:48;12.20;99.90
11505;DHT22;5809;53.262;10.408;2023-11-19T13:11:30;12.10;99.90
11505;DHT22;5809;53.262;10.408;2023-11-19T13:13:58;12.00;99.90
11505;DHT22;5809;53.262;10.408;2023-11-19T13:16:26;11.80;99.90
11505;DHT22;5809;53.262;10.408;2023-11-19T13:18:55;11.80;99.90
11505;DHT22;5809;53.262;10.408;2023-11-19T13:21:22;11.60;99.90
11505;DHT22;5809;53.262;10.408;2023-11-19T13:28:44;11.50;99.90
11505;DHT22;5809;53.262;10.408;2023-11-19T13:31:10;11.60;99.90
11505;DHT22;5809;53.262;10.408;2023-11-19T13:33:37;11.60;99.90
11505;DHT22;5809;53.262;10.408;2023-11-19T13:36:06;11.60;99.90
11505;DHT22;5809;53.262;10.408;2023-11-19T13:38:33;11.60;99.90
11505;DHT22;5809;53.262;10.408;2023-11-19T13:41:00;11.50;99.90
11505;DHT22;5809;53.262;10.408;2023-11-19T13:43:28;11.50;99.90
11505;DHT22;5809;53.262;10.408;2023-11-19T13:45:55;11.50;99.90
11505;DHT22;5809;53.262;10.408;2023-11-19T13:48:22;11.40;99.90
11505;DHT22;5809;53.262;10.408;2023-11-19T13:50:49;11.40;99.90
11505;DHT22;5809;53.262;10.408;2023-11-19T13:53:17;11.30;99.90
11505;DHT22;5809;53.262;10.408;2023-11-19T13:55:44;11.40;99.90
11505;DHT22;5809;53.262;10.408;2023-11-19T13:58:10;11.40;99.90
11505;DHT22;5809;53.262;10.408;2023-11-19T14:05:32;11.30;99.90
11505;DHT22;5809;53.262;10.408;2023-11-19T14:10:28;11.30;99.90
11505;DHT22;5809;53.262;10.408;2023-11-19T14:12:54;11.40;99.90
11505;DHT22;5809;53.262;10.408;2023-11-19T14:15:21;11.30;99.90
11505;DHT22;5809;53.262;10.408;2023-11-19T14:17:48;11.30;99.90
11505;DHT22;5809;53.262;10.408;2023-11-19T14:22:43;11.20;99.90
11505;DHT22;5809;53.262;10.408;2023-11-19T14:27:42;11.20;99.90
11505;DHT22;5809;53.262;10.408;2023-11-19T14:30:10;11.20;99.90
11505;DHT22;5809;53.262;10.408;2023-11-19T14:32:38;11.20;99.90
11505;DHT22;5809;53.262;10.408;2023-11-19T14:35:05;11.30;99.90
11505;DHT22;5809;53.262;10.408;2023-11-19T14:37:33;11.30;99.90
11505;DHT22;5809;53.262;10.408;2023-11-19T14:40:00;11.30;99.90
11505;DHT22;5809;53.262;10.408;2023-11-19T14:44:58;7.60;99.90
11505;DHT22;5809;53.262;10.408;2023-11-19T14:47:25;11.20;99.90
11505;DHT22;5809;53.262;10.408;2023-11-19T14:49:52;11.20;99.90
11505;DHT22;5809;53.262;10.408;2023-11-19T14:59:40;11.20;99.90
11505;DHT22;5809;53.262;10.408;2023-11-19T15:02:09;11.20;99.90
11505;DHT22;5809;53.262;10.408;2023-11-19T15:04:36;11.10;99.90
11505;DHT22;5809;53.262;10.408;2023-11-19T15:11:58;11.00;99.90
11505;DHT22;5809;53.262;10.408;2023-11-19T15:14:25;10.90;99.90
11505;DHT22;5809;53.262;10.408;2023-11-19T15:16:51;10.90;99.90
11505;DHT22;5809;53.262;10.408;2023-11-19T15:19:20;10.80;99.90
11505;DHT22;5809;53.262;10.408;2023-11-19T15:21:46;10.80;99.90
11505;DHT22;5809;53.262;10.408;2023-11-19T15:24:13;10.80;99.90
11505;DHT22;5809;53.262;10.408;2023-11-19T15:31:34;10.60;99.90
11505;DHT22;5809;53.262;10.408;2023-11-19T15:36:30;10.60;99.90
11505;DHT22;5809;53.262;10.408;2023-11-19T15:46:23;10.40;99.90
11505;DHT22;5809;53.262;10.408;2023-11-19T15:53:45;10.10;99.90
11505;DHT22;5809;53.262;10.408;2023-11-19T15:56:13;10.10;99.90
11505;DHT22;5809;53.262;10.408;2023-11-19T16:01:07;10.00;99.90
11505;DHT22;5809;53.262;10.408;2023-11-19T16:03:34;10.00;99.90
11505;DHT22;5809;53.262;10.408;2023-11-19T16:06:02;10.00;99.90
11505;DHT22;5809;53.262;10.408;2023-11-19T16:08:29;10.00;99.90
11505;DHT22;5809;53.262;10.408;2023-11-19T16:10:58;10.00;99.90
11505;DHT22;5809;53.262;10.408;2023-11-19T16:13:25;10.00;99.90
11505;DHT22;5809;53.262;10.408;2023-11-19T16:15:52;10.00;99.90
11505;DHT22;5809;53.262;10.408;2023-11-19T16:18:19;10.00;99.90
11505;DHT22;5809;53.262;10.408;2023-11-19T16:23:13;10.00;99.90
11505;DHT22;5809;53.262;10.408;2023-11-19T16:28:11;10.00;99.90
11505;DHT22;5809;53.262;10.408;2023-11-19T16:30:39;10.00;99.90
11505;DHT22;5809;53.262;10.408;2023-11-19T16:35:34;9.90;99.90
11505;DHT22;5809;53.262;10.408;2023-11-19T16:38:02;9.90;99.90
11505;DHT22;5809;53.262;10.408;2023-11-19T16:45:24;9.90;99.90
11505;DHT22;5809;53.262;10.408;2023-11-19T16:47:51;9.90;99.90
11505;DHT22;5809;53.262;10.408;2023-11-19T16:50:18;9.80;99.90
11505;DHT22;5809;53.262;10.408;2023-11-19T16:52:46;9.80;99.90
11505;DHT22;5809;53.262;10.408;2023-11-19T16:57:41;9.60;99.90
11505;DHT22;5809;53.262;10.408;2023-11-19T17:00:11;9.60;99.90
11505;DHT22;5809;53.262;10.408;2023-11-19T17:02:40;9.60;99.90
11505;DHT22;5809;53.262;10.408;2023-11-19T17:05:08;9.60;99.90
11505;DHT22;5809;53.262;10.408;2023-11-19T17:07:35;9.60;99.90
11505;DHT22;5809;53.262;10.408;2023-11-19T17:10:02;9.70;99.90
11505;DHT22;5809;53.262;10.408;2023-11-19T17:14:57;9.70;99.90
11505;DHT22;5809;53.262;10.408;2023-11-19T17:17:32;9.70;99.90
11505;DHT22;5809;53.262;10.408;2023-11-19T17:20:02;9.70;99.90
11505;DHT22;5809;53.262;10.408;2023-11-19T17:22:32;9.80;99.90
11505;DHT22;5809;53.262;10.408;2023-11-19T17:27:27;9.90;99.90
11505;DHT22;5809;53.262;10.408;2023-11-19T17:37:17;9.80;99.90
11505;DHT22;5809;53.262;10.408;2023-11-19T17:39:44;9.80;99.90
11505;DHT22;5809;53.262;10.408;2023-11-19T17:42:11;9.80;99.90
11505;DHT22;5809;53.262;10.408;2023-11-19T17:47:05;9.80;99.90
11505;DHT22;5809;53.262;10.408;2023-11-19T17:51:59;9.90;99.90
11505;DHT22;5809;53.262;10.408;2023-11-19T17:54:28;10.00;99.90
11505;DHT22;5809;53.262;10.408;2023-11-19T17:56:55;10.00;99.90
11505;DHT22;5809;53.262;10.408;2023-11-19T17:59:23;10.00;99.90
11505;DHT22;5809;53.262;10.408;2023-11-19T18:01:50;10.00;99.90
11505;DHT22;5809;53.262;10.408;2023-11-19T18:09:15;10.00;99.90
11505;DHT22;5809;53.262;10.408;2023-11-19T18:11:44;9.90;99.90
11505;DHT22;5809;53.262;10.408;2023-11-19T18:14:12;10.00;99.90
11505;DHT22;5809;53.262;10.408;2023-11-19T18:21:34;9.90;99.90
11505;DHT22;5809;53.262;10.408;2023-11-19T18:26:28;9.90;99.90
11505;DHT22;5809;53.262;10.408;2023-11-19T18:28:56;9.90;99.90
11505;DHT22;5809;53.262;10.408;2023-11-19T18:31:23;9.90;99.90
11505;DHT22;5809;53.262;10.408;2023-11-19T18:33:50;9.90;99.90
11505;DHT22;5809;53.262;10.408;2023-11-19T18:36:17;9.80;99.90
11505;DHT22;5809;53.262;10.408;2023-11-19T18:38:43;9.80;99.90
11505;DHT22;5809;53.262;10.408;2023-11-19T18:41:10;9.80;99.90
11505;DHT22;5809;53.262;10.408;2023-11-19T18:46:08;9.80;99.90
11505;DHT22;5809;53.262;10.408;2023-11-19T18:48:35;9.80;99.90
11505;DHT22;5809;53.262;10.408;2023-11-19T18:53:30;9.80;99.90
11505;DHT22;5809;53.262;10.408;2023-11-19T19:00:52;9.70;99.90
11505;DHT22;5809;53.262;10.408;2023-11-19T19:03:21;9.70;99.90
11505;DHT22;5809;53.262;10.408;2023-11-19T19:05:49;9.70;99.90
11505;DHT22;5809;53.262;10.408;2023-11-19T19:10:43;9.70;99.90
11505;DHT22;5809;53.262;10.408;2023-11-19T19:13:10;9.70;99.90
11505;DHT22;5809;53.262;10.408;2023-11-19T19:18:04;9.70;99.90
11505;DHT22;5809;53.262;10.408;2023-11-19T19:20:33;9.70;99.90
11505;DHT22;5809;53.262;10.408;2023-11-19T19:25:27;9.70;99.90
11505;DHT22;5809;53.262;10.408;2023-11-19T19:27:55;9.70;99.90
11505;DHT22;5809;53.262;10.408;2023-11-19T19:30:22;9.70;99.90
11505;DHT22;5809;53.262;10.408;2023-11-19T19:32:49;9.70;99.90
11505;DHT22;5809;53.262;10.408;2023-11-19T19:35:16;9.60;99.90
11505;DHT22;5809;53.262;10.408;2023-11-19T19:37:44;9.60;99.90
11505;DHT22;5809;53.262;10.408;2023-11-19T19:40:12;9.60;99.90
11505;DHT22;5809;53.262;10.408;2023-11-19T19:42:39;9.60;99.90
11505;DHT22;5809;53.262;10.408;2023-11-19T19:45:07;9.60;99.90
11505;DHT22;5809;53.262;10.408;2023-11-19T19:47:34;9.60;99.90
11505;DHT22;5809;53.262;10.408;2023-11-19T19:55:02;9.60;99.90
11505;DHT22;5809;53.262;10.408;2023-11-19T20:07:18;9.60;99.90
11505;DHT22;5809;53.262;10.408;2023-11-19T20:12:13;9.60;99.90
11505;DHT22;5809;53.262;10.408;2023-11-19T20:14:40;9.60;99.90
11505;DHT22;5809;53.262;10.408;2023-11-19T20:17:07;9.60;99.90
11505;DHT22;5809;53.262;10.408;2023-11-19T20:19:36;9.60;99.90
11505;DHT22;5809;53.262;10.408;2023-11-19T20:24:31;9.60;99.90
11505;DHT22;5809;53.262;10.408;2023-11-19T20:29:26;9.60;99.90
11505;DHT22;5809;53.262;10.408;2023-11-19T20:34:20;9.60;99.90
11505;DHT22;5809;53.262;10.408;2023-11-19T20:46:37;9.70;99.90
11505;DHT22;5809;53.262;10.408;2023-11-19T20:49:04;9.70;99.90
11505;DHT22;5809;53.262;10.408;2023-11-19T20:51:30;9.70;99.90
11505;DHT22;5809;53.262;10.408;2023-11-19T20:53:58;9.70;99.90
11505;DHT22;5809;53.262;10.408;2023-11-19T21:03:49;9.70;99.90
11505;DHT22;5809;53.262;10.408;2023-11-19T21:13:37;9.70;99.90
11505;DHT22;5809;53.262;10.408;2023-11-19T21:16:05;9.70;99.90
11505;DHT22;5809;53.262;10.408;2023-11-19T21:18:34;9.70;99.90
11505;DHT22;5809;53.262;10.408;2023-11-19T21:21:03;9.70;99.90
11505;DHT22;5809;53.262;10.408;2023-11-19T21:23:30;9.70;99.90
11505;DHT22;5809;53.262;10.408;2023-11-19T21:25:57;9.70;99.90
11505;DHT22;5809;53.262;10.408;2023-11-19T21:30:54;9.70;99.90
11505;DHT22;5809;53.262;10.408;2023-11-19T21:38:19;9.70;99.90
11505;DHT22;5809;53.262;10.408;2023-11-19T21:40:47;9.70;99.90
11505;DHT22;5809;53.262;10.408;2023-11-19T21:48:10;9.70;99.90
11505;DHT22;5809;53.262;10.408;2023-11-19T21:53:04;9.70;99.90
11505;DHT22;5809;53.262;10.408;2023-11-19T21:55:32;9.70;99.90
11505;DHT22;5809;53.262;10.408;2023-11-19T22:05:21;9.80;99.90
11505;DHT22;5809;53.262;10.408;2023-11-19T22:07:48;9.70;99.90
11505;DHT22;5809;53.262;10.408;2023-11-19T22:15:12;9.70;99.90
11505;DHT22;5809;53.262;10.408;2023-11-19T22:17:38;9.70;99.90
11505;DHT22;5809;53.262;10.408;2023-11-19T22:20:06;9.70;99.90
11505;DHT22;5809;53.262;10.408;2023-11-19T22:22:33;9.70;99.90
11505;DHT22;5809;53.262;10.408;2023-11-19T22:25:00;9.70;99.90
11505;DHT22;5809;53.262;10.408;2023-11-19T22:27:27;9.80;99.90